Time;durP1;ratioP1;P1;durP2;ratioP2;P2;SDS_P1;SDS_P2;PMS_P1;PMS_P2;Temp;Humidity;BMP_temperature;BMP_pressure;BME280_temperature;BME280_humidity;BME280_pressure;Samples;Min_cycle;Max_cycle;Signal;HPM_P1;HPM_P2
2023/05/02 00:00:09;;;;;;;5.43;4.93;;;20.50;60.10;;;;;;5092740;28;20626;-47
2023/05/02 00:02:39;;;;;;;6.27;5.10;;;20.50;60.10;;;;;;5094519;28;20229;-47
2023/05/02 00:05:10;;;;;;;5.80;5.30;;;20.50;60.10;;;;;;5074329;28;20197;-47
2023/05/02 00:07:40;;;;;;;6.27;4.57;;;20.50;60.10;;;;;;5087008;28;20193;-46
2023/05/02 00:10:10;;;;;;;5.23;4.73;;;20.40;60.10;;;;;;5090829;28;20238;-47
2023/05/02 00:12:41;;;;;;;6.77;4.97;;;20.50;60.10;;;;;;5097539;28;20197;-47
2023/05/02 00:15:13;;;;;;;4.67;4.10;;;20.40;60.10;;;;;;5088587;28;20212;-46
2023/05/02 00:17:46;;;;;;;4.77;4.30;;;20.40;60.00;;;;;;5091691;28;20197;-47
2023/05/02 00:20:15;;;;;;;4.70;3.97;;;20.40;60.10;;;;;;5075271;28;20544;-47
2023/05/02 00:22:45;;;;;;;5.70;4.90;;;20.40;60.10;;;;;;5089837;28;20637;-47
2023/05/02 00:25:15;;;;;;;5.73;4.77;;;20.40;60.10;;;;;;5092526;28;20668;-47
2023/05/02 00:27:46;;;;;;;4.23;3.83;;;20.40;60.20;;;;;;5089387;28;20623;-46
2023/05/02 00:30:19;;;;;;;5.63;4.33;;;20.40;60.10;;;;;;5090372;28;20193;-47
2023/05/02 00:32:49;;;;;;;4.90;4.40;;;20.40;60.70;;;;;;5071086;28;20201;-47
2023/05/02 00:35:18;;;;;;;5.60;4.47;;;20.40;60.20;;;;;;5093106;28;20338;-47
2023/05/02 00:37:47;;;;;;;4.40;4.00;;;20.30;60.10;;;;;;5083310;28;20511;-46
2023/05/02 00:40:17;;;;;;;5.43;4.13;;;20.40;60.10;;;;;;5092574;28;20229;-47
2023/05/02 00:42:49;;;;;;;4.53;3.90;;;20.40;60.10;;;;;;5092920;28;20213;-47
2023/05/02 00:45:18;;;;;;;4.93;4.10;;;20.40;60.10;;;;;;5081477;28;20229;-48
2023/05/02 00:47:50;;;;;;;5.53;4.53;;;20.30;60.10;;;;;;5091745;28;20622;-46
2023/05/02 00:50:25;;;;;;;4.30;3.90;;;20.40;60.10;;;;;;5080955;28;20772;-47
2023/05/02 00:52:55;;;;;;;5.23;4.37;;;20.30;60.00;;;;;;5094159;28;20212;-47
2023/05/02 00:55:24;;;;;;;5.50;4.47;;;20.40;60.00;;;;;;5091894;28;20209;-47
2023/05/02 00:57:53;;;;;;;4.80;4.23;;;20.30;60.00;;;;;;5089485;28;20193;-47
2023/05/02 01:00:30;;;;;;;4.60;3.87;;;20.30;60.00;;;;;;5088873;28;20242;-47
2023/05/02 01:03:25;;;;;;;4.70;4.10;;;20.30;59.80;;;;;;5059917;28;20650;-47
2023/05/02 01:06:28;;;;;;;4.67;4.27;;;20.30;59.80;;;;;;5086851;28;20525;-47
2023/05/02 01:09:33;;;;;;;4.37;3.73;;;20.30;59.90;;;;;;5091318;28;20637;-47
2023/05/02 01:12:14;;;;;;;4.73;4.30;;;20.20;59.80;;;;;;5088054;28;20189;-47
2023/05/02 01:14:58;;;;;;;4.93;4.43;;;20.20;59.90;;;;;;5089925;28;20239;-47
2023/05/02 01:17:34;;;;;;;4.90;4.40;;;20.20;59.90;;;;;;5091120;28;20205;-47
2023/05/02 01:20:11;;;;;;;5.50;4.10;;;20.20;59.70;;;;;;5071749;28;20200;-47
2023/05/02 01:22:42;;;;;;;6.00;4.00;;;20.20;59.80;;;;;;5090050;28;20199;-47
2023/05/02 01:25:36;;;;;;;4.33;3.93;;;20.20;59.80;;;;;;5090350;28;20193;-46
2023/05/02 01:28:34;;;;;;;4.60;4.10;;;20.20;59.80;;;;;;5067808;28;20193;-46
2023/05/02 01:31:09;;;;;;;4.60;4.17;;;20.10;59.70;;;;;;5088571;28;20193;-47
2023/05/02 01:33:41;;;;;;;4.73;4.17;;;20.10;59.70;;;;;;5074055;28;20241;-47
2023/05/02 01:36:14;;;;;;;4.10;3.70;;;20.20;59.80;;;;;;5093682;28;20203;-47
2023/05/02 01:38:48;;;;;;;4.60;3.73;;;20.20;59.80;;;;;;5091250;28;20670;-47
2023/05/02 01:41:25;;;;;;;3.67;3.37;;;20.10;59.70;;;;;;5075388;28;20712;-47
2023/05/02 01:44:00;;;;;;;4.83;4.33;;;20.10;59.80;;;;;;5068990;28;20227;-47
2023/05/02 01:46:32;;;;;;;4.50;3.83;;;20.10;59.70;;;;;;5066743;28;20248;-46
2023/05/02 01:49:10;;;;;;;4.27;3.87;;;20.10;59.70;;;;;;5059344;28;20199;-47
2023/05/02 01:51:49;;;;;;;4.63;4.17;;;20.10;59.60;;;;;;5033352;28;20702;-47
2023/05/02 01:54:33;;;;;;;4.17;3.70;;;20.10;59.60;;;;;;5043642;28;20229;-47
2023/05/02 01:57:06;;;;;;;4.57;4.10;;;20.10;59.60;;;;;;5036111;28;20201;-47
2023/05/02 01:59:37;;;;;;;3.80;3.40;;;20.10;59.60;;;;;;5043858;28;20363;-47
2023/05/02 02:02:05;;;;;;;4.90;4.03;;;20.10;59.70;;;;;;5054482;28;20222;-47
2023/05/02 02:04:42;;;;;;;4.23;3.83;;;20.10;59.70;;;;;;5060814;28;20225;-47
2023/05/02 02:07:25;;;;;;;4.33;3.93;;;20.10;59.70;;;;;;5071871;28;20307;-47
2023/05/02 02:09:54;;;;;;;3.73;3.40;;;20.10;59.70;;;;;;5067263;28;20219;-47
2023/05/02 02:12:49;;;;;;;4.10;3.70;;;20.10;59.70;;;;;;5069437;28;20291;-47
2023/05/02 02:15:33;;;;;;;3.70;3.40;;;20.10;59.60;;;;;;5072136;28;20209;-47
2023/05/02 02:18:17;;;;;;;4.80;4.00;;;20.10;59.60;;;;;;5032488;28;20247;-47
2023/05/02 02:20:53;;;;;;;4.67;4.20;;;20.00;59.50;;;;;;5037908;28;20193;-47
2023/05/02 02:23:27;;;;;;;3.33;3.03;;;20.00;59.60;;;;;;5048549;28;20751;-47
2023/05/02 02:25:56;;;;;;;3.67;3.37;;;20.00;59.60;;;;;;5029984;28;20197;-47
2023/05/02 02:28:24;;;;;;;3.87;3.47;;;20.00;59.60;;;;;;5052030;28;20194;-47
2023/05/02 02:30:55;;;;;;;4.03;3.33;;;20.00;59.60;;;;;;5075098;28;20190;-47
2023/05/02 02:33:31;;;;;;;5.67;3.30;;;20.00;59.60;;;;;;5051810;28;20210;-47
2023/05/02 02:36:20;;;;;;;3.47;3.13;;;20.00;59.60;;;;;;5072555;28;20379;-47
2023/05/02 02:39:11;;;;;;;3.60;3.30;;;20.00;59.70;;;;;;5065055;28;20205;-47
2023/05/02 02:41:49;;;;;;;3.60;3.20;;;20.00;59.70;;;;;;5067575;28;20259;-46
2023/05/02 02:44:45;;;;;;;3.47;2.70;;;20.00;59.80;;;;;;5051128;28;20223;-46
2023/05/02 02:48:00;;;;;;;3.70;3.17;;;20.00;59.70;;;;;;5062071;28;20246;-47
2023/05/02 02:51:00;;;;;;;3.27;2.97;;;20.00;59.80;;;;;;5059215;28;20221;-47
2023/05/02 02:53:58;;;;;;;3.13;2.50;;;20.00;59.90;;;;;;5069073;28;20208;-46
2023/05/02 02:56:54;;;;;;;3.60;3.30;;;20.00;59.80;;;;;;5073409;28;20190;-47
2023/05/02 02:59:40;;;;;;;2.60;2.40;;;20.00;59.80;;;;;;5046848;28;20205;-46
2023/05/02 03:02:17;;;;;;;4.53;3.00;;;20.00;59.90;;;;;;5053667;28;20238;-48
2023/05/02 03:04:52;;;;;;;3.60;2.80;;;20.00;59.90;;;;;;5072926;28;20221;-47
2023/05/02 03:07:23;;;;;;;2.93;2.63;;;20.00;59.80;;;;;;5084243;28;20197;-47
2023/05/02 03:09:54;;;;;;;3.03;2.73;;;20.00;59.80;;;;;;5070173;28;20205;-47
2023/05/02 03:12:24;;;;;;;3.60;2.90;;;19.90;59.80;;;;;;5067502;28;20548;-47
2023/05/02 03:15:36;;;;;;;3.60;2.90;;;20.00;59.80;;;;;;5059779;28;20288;-46
2023/05/02 03:18:05;;;;;;;2.60;2.40;;;20.00;59.70;;;;;;5069445;28;20198;-47
2023/05/02 03:20:33;;;;;;;3.17;2.70;;;20.00;59.80;;;;;;5077227;28;20190;-47
2023/05/02 03:23:06;;;;;;;4.20;2.97;;;20.00;59.80;;;;;;5064160;28;20539;-47
2023/05/02 03:25:35;;;;;;;3.10;2.63;;;20.00;59.80;;;;;;5073147;28;20197;-47
2023/05/02 03:28:06;;;;;;;3.13;2.83;;;20.00;60.10;;;;;;5067761;28;20198;-47
2023/05/02 03:30:34;;;;;;;5.03;3.10;;;20.00;59.60;;;;;;5072860;28;20193;-47
2023/05/02 03:33:06;;;;;;;3.47;3.13;;;19.90;60.20;;;;;;5069068;28;20224;-47
2023/05/02 03:35:38;;;;;;;3.77;3.20;;;19.90;59.60;;;;;;5073626;28;20204;-47
2023/05/02 03:38:07;;;;;;;3.80;3.07;;;19.90;59.60;;;;;;5086250;28;20251;-47
2023/05/02 03:40:39;;;;;;;3.07;2.70;;;19.90;59.60;;;;;;5076873;28;20566;-47
2023/05/02 03:43:10;;;;;;;3.40;3.10;;;19.90;59.60;;;;;;5061504;28;20197;-47
2023/05/02 03:45:39;;;;;;;3.37;3.00;;;19.90;59.50;;;;;;5065867;28;20579;-47
2023/05/02 03:48:07;;;;;;;3.53;3.23;;;19.90;59.50;;;;;;5069484;28;20202;-47
2023/05/02 03:50:37;;;;;;;3.60;3.20;;;19.90;59.60;;;;;;5069378;28;20212;-47
2023/05/02 03:53:08;;;;;;;3.83;3.20;;;19.90;59.60;;;;;;5071031;28;20186;-47
2023/05/02 03:55:56;;;;;;;3.63;3.07;;;19.90;59.50;;;;;;5073775;28;20170;-46
2023/05/02 03:58:40;;;;;;;4.87;2.70;;;19.90;59.60;;;;;;5071268;28;20686;-45
2023/05/02 04:01:16;;;;;;;2.50;2.30;;;19.90;59.60;;;;;;5081145;28;20194;-46
2023/05/02 04:03:47;;;;;;;3.57;2.97;;;19.90;59.60;;;;;;5029066;28;20232;-46
2023/05/02 04:06:17;;;;;;;3.67;2.80;;;19.90;59.60;;;;;;5070287;28;20681;-46
2023/05/02 04:08:46;;;;;;;3.23;2.93;;;19.90;59.60;;;;;;5040061;28;20202;-47
2023/05/02 04:11:25;;;;;;;2.60;2.40;;;19.80;59.50;;;;;;5066256;28;20190;-45
2023/05/02 04:13:56;;;;;;;3.23;2.93;;;19.90;59.50;;;;;;5046712;28;20533;-46
2023/05/02 04:16:26;;;;;;;3.07;2.77;;;19.80;59.40;;;;;;5071565;28;20253;-47
2023/05/02 04:18:56;;;;;;;3.10;2.80;;;19.90;59.40;;;;;;5078377;28;20201;-46
2023/05/02 04:21:26;;;;;;;2.70;2.50;;;19.80;59.40;;;;;;5074385;28;20620;-45
2023/05/02 04:23:58;;;;;;;2.50;2.30;;;19.80;59.40;;;;;;5071499;28;20647;-46
2023/05/02 04:26:28;;;;;;;2.80;2.50;;;19.80;59.40;;;;;;5078715;28;20234;-46
2023/05/02 04:29:03;;;;;;;3.43;2.80;;;19.80;59.50;;;;;;5067087;28;20214;-46
2023/05/02 04:31:33;;;;;;;4.03;3.03;;;19.80;59.40;;;;;;5084476;28;20192;-45
2023/05/02 04:34:05;;;;;;;3.43;2.93;;;19.80;59.20;;;;;;5074348;28;20194;-47
2023/05/02 04:36:37;;;;;;;2.83;2.50;;;19.80;59.20;;;;;;5055397;28;20201;-47
2023/05/02 04:39:09;;;;;;;2.90;2.43;;;19.80;59.20;;;;;;5072993;28;20274;-47
2023/05/02 04:41:41;;;;;;;2.40;2.20;;;19.80;59.10;;;;;;5075131;28;20213;-46
2023/05/02 04:44:12;;;;;;;2.53;2.10;;;19.80;59.10;;;;;;5077091;28;20213;-47
2023/05/02 04:46:43;;;;;;;2.80;2.27;;;19.80;59.10;;;;;;5075178;28;20291;-47
2023/05/02 04:49:12;;;;;;;2.30;2.13;;;19.70;59.10;;;;;;5078757;28;20318;-47
2023/05/02 04:51:43;;;;;;;2.77;2.50;;;19.80;59.10;;;;;;5070087;28;20224;-46
2023/05/02 04:54:12;;;;;;;2.27;1.90;;;19.70;59.00;;;;;;5038329;28;20221;-47
2023/05/02 04:56:41;;;;;;;3.30;1.70;;;19.80;59.10;;;;;;5066868;28;20795;-45
2023/05/02 04:59:11;;;;;;;2.73;1.60;;;19.80;58.90;;;;;;5081453;28;20630;-45
2023/05/02 05:01:40;;;;;;;2.27;1.70;;;19.70;58.80;;;;;;5082678;28;20214;-47
2023/05/02 05:04:10;;;;;;;2.63;1.60;;;19.70;58.60;;;;;;5067976;28;20280;-47
2023/05/02 05:06:41;;;;;;;2.00;1.80;;;19.70;58.70;;;;;;5071726;28;20214;-47
2023/05/02 05:09:12;;;;;;;1.97;1.53;;;19.70;58.60;;;;;;5068386;28;20566;-48
2023/05/02 05:11:45;;;;;;;2.27;1.40;;;19.70;58.40;;;;;;5061709;28;20210;-45
2023/05/02 05:14:15;;;;;;;1.87;1.47;;;19.70;58.40;;;;;;5058400;28;20612;-46
2023/05/02 05:16:44;;;;;;;2.37;1.40;;;19.70;58.50;;;;;;5063727;28;20286;-47
2023/05/02 05:19:12;;;;;;;1.73;1.60;;;19.70;58.20;;;;;;5068074;28;20229;-46
2023/05/02 05:21:41;;;;;;;2.07;1.60;;;19.70;58.20;;;;;;5078443;28;20197;-46
2023/05/02 05:24:10;;;;;;;1.90;1.33;;;19.70;58.30;;;;;;5074468;28;20216;-46
2023/05/02 05:26:44;;;;;;;2.83;1.57;;;19.70;58.40;;;;;;5076420;28;20230;-46
2023/05/02 05:29:15;;;;;;;2.27;1.40;;;19.60;58.30;;;;;;5079842;28;20217;-46
2023/05/02 05:31:46;;;;;;;1.60;1.50;;;19.70;58.50;;;;;;5073640;28;20193;-44
2023/05/02 05:34:14;;;;;;;2.40;1.43;;;19.70;58.40;;;;;;5069048;28;20202;-45
2023/05/02 05:36:44;;;;;;;2.63;1.63;;;19.70;58.30;;;;;;5081825;28;20193;-46
2023/05/02 05:39:15;;;;;;;1.83;1.43;;;19.60;58.30;;;;;;5076653;28;20202;-46
2023/05/02 05:42:00;;;;;;;1.40;1.20;;;19.60;58.20;;;;;;5064971;28;20326;-44
2023/05/02 05:44:31;;;;;;;4.10;1.60;;;19.60;58.30;;;;;;5067488;28;20209;-45
2023/05/02 05:46:59;;;;;;;2.97;1.30;;;19.70;59.10;;;;;;5070750;28;20233;-46
2023/05/02 05:49:31;;;;;;;2.30;1.37;;;19.70;58.40;;;;;;5070864;28;20193;-46
2023/05/02 05:52:03;;;;;;;1.97;1.20;;;19.70;58.40;;;;;;5065981;28;20519;-46
2023/05/02 05:54:35;;;;;;;1.70;1.40;;;19.60;58.40;;;;;;5072251;28;20233;-44
2023/05/02 05:57:08;;;;;;;2.70;1.40;;;19.70;58.40;;;;;;5077366;28;20197;-47
2023/05/02 05:59:37;;;;;;;2.47;1.30;;;19.60;58.40;;;;;;5068892;28;20247;-47
2023/05/02 06:02:08;;;;;;;1.50;1.10;;;19.60;58.50;;;;;;5057818;28;20202;-48
2023/05/02 06:04:41;;;;;;;1.60;1.20;;;19.70;58.60;;;;;;5072444;28;20248;-48
2023/05/02 06:07:09;;;;;;;3.97;1.80;;;19.60;58.50;;;;;;5056233;28;20190;-46
2023/05/02 06:09:39;;;;;;;7.60;2.80;;;19.60;58.70;;;;;;5082300;28;20198;-46
2023/05/02 06:12:10;;;;;;;5.73;2.20;;;19.60;58.70;;;;;;5069027;28;20202;-46
2023/05/02 06:14:41;;;;;;;6.80;2.37;;;19.70;58.70;;;;;;5070062;28;20196;-46
2023/05/02 06:17:13;;;;;;;9.73;2.70;;;19.70;58.60;;;;;;5068593;28;20222;-47
2023/05/02 06:19:43;;;;;;;4.20;2.07;;;19.70;58.70;;;;;;5068795;28;20208;-47
2023/05/02 06:22:14;;;;;;;3.50;1.90;;;19.70;58.70;;;;;;5068978;28;20206;-46
2023/05/02 06:24:46;;;;;;;4.13;2.47;;;19.60;58.30;;;;;;5077237;28;20236;-46
2023/05/02 06:27:15;;;;;;;7.70;2.10;;;19.60;58.20;;;;;;5070233;28;20205;-46
2023/05/02 06:29:46;;;;;;;5.53;2.17;;;19.60;58.20;;;;;;5064884;28;20267;-46
2023/05/02 06:32:15;;;;;;;5.37;2.00;;;19.70;58.20;;;;;;5069594;28;20229;-46
2023/05/02 06:34:44;;;;;;;6.37;2.50;;;19.60;58.20;;;;;;5069179;28;20783;-46
2023/05/02 06:37:16;;;;;;;4.23;2.20;;;19.60;58.10;;;;;;5069374;28;20206;-47
2023/05/02 06:39:45;;;;;;;4.50;2.10;;;19.60;58.20;;;;;;5076325;28;20719;-47
2023/05/02 06:42:17;;;;;;;2.43;1.70;;;19.70;58.30;;;;;;5070558;28;20194;-46
2023/05/02 06:44:50;;;;;;;5.10;1.80;;;19.60;58.10;;;;;;5087272;28;20220;-47
2023/05/02 06:47:23;;;;;;;7.93;2.00;;;19.60;57.90;;;;;;5057682;28;20216;-44
2023/05/02 06:49:54;;;;;;;4.30;2.10;;;19.60;57.90;;;;;;5074378;28;20224;-46
2023/05/02 06:52:27;;;;;;;3.67;1.60;;;19.60;57.70;;;;;;5083236;28;20217;-46
2023/05/02 06:54:55;;;;;;;6.70;1.90;;;19.60;57.30;;;;;;5080605;28;20197;-45
2023/05/02 06:57:26;;;;;;;3.80;1.50;;;19.60;58.20;;;;;;5079091;28;20201;-44
2023/05/02 06:59:54;;;;;;;5.70;1.73;;;19.60;57.50;;;;;;5076597;28;20527;-45
2023/05/02 07:02:26;;;;;;;3.13;1.50;;;19.60;57.40;;;;;;5076934;28;20626;-45
2023/05/02 07:04:56;;;;;;;4.00;2.00;;;19.60;57.50;;;;;;5077802;28;20442;-46
2023/05/02 07:07:30;;;;;;;4.70;1.63;;;19.60;57.70;;;;;;5078783;28;20216;-45
2023/05/02 07:10:21;;;;;;;4.20;1.63;;;19.60;57.70;;;;;;5064290;28;20693;-45
2023/05/02 07:12:51;;;;;;;2.73;1.33;;;19.60;57.60;;;;;;5070301;28;20201;-46
2023/05/02 07:15:21;;;;;;;2.90;1.30;;;19.60;57.10;;;;;;5076906;28;20196;-44
2023/05/02 07:17:50;;;;;;;1.90;1.40;;;19.60;57.10;;;;;;5068615;28;20214;-46
2023/05/02 07:20:20;;;;;;;3.67;1.40;;;19.60;57.10;;;;;;5077911;28;20205;-45
2023/05/02 07:22:53;;;;;;;4.23;1.40;;;19.60;56.90;;;;;;5078211;28;20189;-45
2023/05/02 07:25:21;;;;;;;3.43;1.50;;;19.60;57.10;;;;;;5086222;28;20225;-46
2023/05/02 07:27:53;;;;;;;4.07;1.27;;;19.60;57.10;;;;;;5075368;28;20204;-45
2023/05/02 07:30:23;;;;;;;5.13;1.60;;;19.60;57.10;;;;;;5063841;28;20190;-46
2023/05/02 07:32:54;;;;;;;4.57;1.47;;;19.60;57.20;;;;;;5057450;28;20290;-46
2023/05/02 07:35:25;;;;;;;3.73;1.37;;;19.60;57.10;;;;;;5046737;28;20260;-46
2023/05/02 07:37:57;;;;;;;3.60;1.30;;;19.60;57.00;;;;;;5079477;28;20204;-46
2023/05/02 07:40:30;;;;;;;2.57;1.20;;;19.60;57.30;;;;;;5070060;28;20658;-46
2023/05/02 07:43:02;;;;;;;3.67;1.33;;;19.60;57.30;;;;;;5051761;28;20698;-46
2023/05/02 07:45:35;;;;;;;3.60;1.70;;;19.60;57.30;;;;;;5079892;28;20222;-46
2023/05/02 07:48:06;;;;;;;2.90;1.40;;;19.60;57.10;;;;;;5052645;28;20639;-45
2023/05/02 07:50:41;;;;;;;5.27;1.30;;;19.60;57.10;;;;;;5073177;28;20193;-47
2023/05/02 07:53:25;;;;;;;3.40;1.40;;;19.60;56.90;;;;;;5070754;28;20237;-47
2023/05/02 07:56:09;;;;;;;2.00;1.13;;;19.60;57.20;;;;;;5070397;28;20224;-46
2023/05/02 07:58:53;;;;;;;3.47;1.13;;;19.60;57.30;;;;;;5073086;28;20217;-46
2023/05/02 08:01:24;;;;;;;4.63;1.50;;;19.60;57.30;;;;;;5054249;28;20205;-45
2023/05/02 08:03:55;;;;;;;2.40;1.20;;;19.60;57.30;;;;;;5067518;28;20208;-46
2023/05/02 08:06:28;;;;;;;2.93;1.00;;;19.60;57.20;;;;;;5071662;28;20870;-46
2023/05/02 08:09:00;;;;;;;4.90;1.50;;;19.60;57.30;;;;;;5057997;28;20213;-46
2023/05/02 08:11:32;;;;;;;2.20;1.20;;;19.60;57.30;;;;;;5055962;28;20227;-46
2023/05/02 08:14:00;;;;;;;4.33;1.17;;;19.60;57.10;;;;;;5069387;28;20540;-46
2023/05/02 08:16:31;;;;;;;1.83;1.30;;;19.60;57.10;;;;;;5071829;28;20214;-46
2023/05/02 08:19:07;;;;;;;1.93;1.10;;;19.60;57.10;;;;;;5065840;28;20205;-46
2023/05/02 08:21:39;;;;;;;6.53;1.50;;;19.60;57.20;;;;;;5068409;28;20741;-47
2023/05/02 08:24:07;;;;;;;3.23;1.60;;;19.60;57.20;;;;;;5068222;28;20205;-47
2023/05/02 08:26:38;;;;;;;2.30;1.40;;;19.60;57.20;;;;;;5072562;28;20220;-47
2023/05/02 08:29:06;;;;;;;3.23;1.37;;;19.60;57.20;;;;;;5070752;28;20210;-47
2023/05/02 08:31:34;;;;;;;2.63;1.23;;;19.70;57.20;;;;;;5071554;28;20189;-47
2023/05/02 08:34:05;;;;;;;3.17;1.30;;;19.60;57.30;;;;;;5069644;28;20206;-47
2023/05/02 08:36:36;;;;;;;3.57;1.47;;;19.60;56.90;;;;;;5059094;28;20202;-46
2023/05/02 08:39:06;;;;;;;2.30;1.00;;;19.70;57.00;;;;;;5071736;28;20226;-46
2023/05/02 08:41:39;;;;;;;3.67;1.37;;;19.70;56.90;;;;;;5069317;28;20241;-47
2023/05/02 08:44:11;;;;;;;2.90;1.10;;;19.70;56.90;;;;;;5072090;28;20210;-46
2023/05/02 08:46:57;;;;;;;4.30;1.57;;;19.70;56.90;;;;;;5025531;28;20320;-46
2023/05/02 08:49:33;;;;;;;2.00;1.20;;;19.60;56.70;;;;;;5052240;28;20636;-48
2023/05/02 08:52:03;;;;;;;4.23;1.40;;;19.70;56.80;;;;;;5034474;28;20719;-47
2023/05/02 08:54:36;;;;;;;2.00;1.13;;;19.70;56.70;;;;;;5032972;28;20241;-47
2023/05/02 08:57:06;;;;;;;3.00;1.43;;;19.70;56.80;;;;;;5053834;28;20536;-47
2023/05/02 08:59:38;;;;;;;2.03;1.43;;;19.60;56.90;;;;;;5051870;28;20206;-47
2023/05/02 09:02:45;;;;;;;1.77;1.20;;;19.70;56.80;;;;;;5054366;28;20628;-45
2023/05/02 09:05:19;;;;;;;1.33;1.00;;;19.70;56.80;;;;;;5051901;28;20230;-45
2023/05/02 09:08:02;;;;;;;3.57;1.30;;;19.70;56.90;;;;;;5028122;28;20256;-47
2023/05/02 09:10:38;;;;;;;2.20;1.37;;;19.70;57.00;;;;;;5055408;28;20209;-47
2023/05/02 09:13:46;;;;;;;3.10;1.27;;;19.70;57.00;;;;;;5035641;28;20857;-47
2023/05/02 09:16:25;;;;;;;2.53;1.23;;;19.70;56.60;;;;;;5054859;28;20288;-46
2023/05/02 09:18:58;;;;;;;1.77;1.00;;;19.70;56.60;;;;;;5050302;28;20198;-46
2023/05/02 09:21:42;;;;;;;1.57;1.10;;;19.70;56.70;;;;;;5051645;28;20840;-45
2023/05/02 09:24:20;;;;;;;2.33;1.17;;;19.70;56.70;;;;;;5058294;28;20201;-45
2023/05/02 09:27:04;;;;;;;1.73;1.00;;;19.70;56.60;;;;;;5047961;28;20230;-45
2023/05/02 09:29:37;;;;;;;2.30;1.13;;;19.80;56.50;;;;;;5065972;28;20309;-44
2023/05/02 09:32:07;;;;;;;2.23;0.90;;;19.80;56.70;;;;;;5042906;28;20909;-46
2023/05/02 09:34:38;;;;;;;2.40;1.33;;;19.70;56.70;;;;;;5040544;28;20643;-45
2023/05/02 09:37:11;;;;;;;2.00;1.13;;;19.70;56.60;;;;;;5061016;28;20195;-46
2023/05/02 09:40:06;;;;;;;2.40;1.07;;;19.80;56.60;;;;;;5066526;28;20186;-46
2023/05/02 09:42:47;;;;;;;2.60;1.13;;;19.80;56.60;;;;;;5035324;28;20699;-47
2023/05/02 09:45:24;;;;;;;2.17;1.13;;;19.80;56.50;;;;;;5051040;28;20250;-45
2023/05/02 09:48:01;;;;;;;2.87;1.20;;;19.80;56.60;;;;;;5031424;28;20226;-46
2023/05/02 09:50:38;;;;;;;1.43;1.00;;;19.70;56.50;;;;;;5026288;28;20282;-47
2023/05/02 09:53:10;;;;;;;2.13;1.20;;;19.80;57.20;;;;;;5044736;28;20206;-46
2023/05/02 09:55:43;;;;;;;2.43;1.23;;;19.80;56.60;;;;;;5049518;28;20187;-45
2023/05/02 09:58:24;;;;;;;2.30;0.83;;;19.80;56.60;;;;;;5030915;28;20493;-44
2023/05/02 10:01:03;;;;;;;3.13;1.33;;;19.80;56.50;;;;;;5034099;28;20191;-45
2023/05/02 10:03:45;;;;;;;2.40;1.10;;;19.80;56.60;;;;;;5050091;28;20195;-46
2023/05/02 10:06:23;;;;;;;3.03;1.47;;;19.80;56.50;;;;;;5049911;28;20928;-46
2023/05/02 10:08:54;;;;;;;2.67;1.13;;;19.80;56.30;;;;;;5050537;28;20225;-46
2023/05/02 10:11:26;;;;;;;2.23;1.00;;;19.80;56.40;;;;;;5051839;28;20186;-46
2023/05/02 10:13:57;;;;;;;3.43;1.47;;;19.80;56.40;;;;;;5052480;28;20200;-46
2023/05/02 10:16:34;;;;;;;2.20;0.90;;;19.90;56.40;;;;;;5044149;28;20201;-46
2023/05/02 10:19:11;;;;;;;2.60;1.27;;;19.80;56.40;;;;;;5037961;28;20197;-46
2023/05/02 10:21:42;;;;;;;3.23;1.70;;;19.80;56.20;;;;;;5036515;28;20200;-45
2023/05/02 10:24:18;;;;;;;4.80;1.27;;;19.90;56.10;;;;;;5054312;28;20202;-45
2023/05/02 10:26:47;;;;;;;1.60;1.10;;;19.90;56.00;;;;;;5053283;28;20213;-44
2023/05/02 10:29:19;;;;;;;2.33;1.30;;;19.90;56.10;;;;;;5051635;28;20631;-44
2023/05/02 10:31:50;;;;;;;3.07;1.30;;;19.90;56.00;;;;;;5032690;28;20652;-45
2023/05/02 10:34:23;;;;;;;3.03;1.37;;;19.90;56.00;;;;;;5033354;28;20202;-45
2023/05/02 10:36:54;;;;;;;2.47;1.30;;;19.90;56.10;;;;;;5021539;28;20502;-46
2023/05/02 10:39:24;;;;;;;2.97;1.10;;;19.90;56.00;;;;;;5049700;28;20205;-46
2023/05/02 10:41:57;;;;;;;2.67;1.40;;;19.90;56.00;;;;;;5045404;28;20280;-46
2023/05/02 10:44:40;;;;;;;5.57;1.23;;;19.90;56.00;;;;;;5052208;28;20229;-46
2023/05/02 10:47:27;;;;;;;2.23;1.00;;;20.00;56.10;;;;;;5073771;28;20551;-46
2023/05/02 10:50:07;;;;;;;2.27;1.33;;;20.00;56.00;;;;;;5064150;28;20197;-46
2023/05/02 10:52:37;;;;;;;2.17;1.27;;;20.00;56.10;;;;;;5075488;28;20197;-46
2023/05/02 10:55:28;;;;;;;2.77;1.23;;;20.00;56.10;;;;;;5058371;28;20201;-46
2023/05/02 10:58:21;;;;;;;2.40;1.40;;;20.00;56.00;;;;;;5069340;28;20193;-45
2023/05/02 11:00:51;;;;;;;2.07;1.30;;;20.00;56.00;;;;;;5070256;28;20193;-45
2023/05/02 11:03:56;;;;;;;2.47;1.23;;;20.00;56.20;;;;;;5078858;28;20198;-45
2023/05/02 11:06:34;;;;;;;3.33;1.20;;;20.00;55.90;;;;;;5070057;28;20535;-46
2023/05/02 11:09:15;;;;;;;2.77;1.30;;;20.00;55.90;;;;;;5069947;28;20202;-46
2023/05/02 11:11:56;;;;;;;1.33;0.80;;;20.00;55.60;;;;;;5052085;28;20697;-44
2023/05/02 11:14:46;;;;;;;1.60;1.10;;;20.00;55.80;;;;;;5075581;28;20657;-44
2023/05/02 11:17:16;;;;;;;1.97;1.10;;;20.00;55.60;;;;;;5068717;28;20213;-44
2023/05/02 11:19:43;;;;;;;3.90;1.20;;;20.00;55.50;;;;;;5048901;28;20194;-46
2023/05/02 11:22:19;;;;;;;2.47;1.10;;;20.00;55.20;;;;;;5076612;28;20185;-45
2023/05/02 11:24:54;;;;;;;2.27;1.20;;;20.10;55.60;;;;;;5079691;28;20626;-47
2023/05/02 11:27:36;;;;;;;2.50;1.07;;;20.10;55.50;;;;;;5082059;28;20212;-46
2023/05/02 11:30:36;;;;;;;2.10;1.13;;;20.10;55.50;;;;;;5077992;28;20292;-46
2023/05/02 11:33:10;;;;;;;1.53;0.90;;;20.10;55.50;;;;;;5038665;28;20190;-46
2023/05/02 11:35:42;;;;;;;2.33;1.27;;;20.10;55.50;;;;;;5078925;28;20646;-46
2023/05/02 11:38:18;;;;;;;4.97;1.50;;;20.10;55.50;;;;;;5039702;28;20251;-46
2023/05/02 11:40:57;;;;;;;3.20;1.40;;;20.10;55.40;;;;;;5071995;28;20219;-45
2023/05/02 11:43:28;;;;;;;2.77;1.30;;;20.10;55.40;;;;;;5073279;28;20699;-45
2023/05/02 11:46:00;;;;;;;3.40;1.37;;;20.10;55.40;;;;;;5069588;28;20298;-46
2023/05/02 11:48:32;;;;;;;2.50;1.10;;;20.10;55.50;;;;;;5079983;28;20193;-46
2023/05/02 11:51:05;;;;;;;1.83;1.20;;;20.20;55.70;;;;;;5075253;28;20204;-46
2023/05/02 11:53:43;;;;;;;1.97;1.17;;;20.10;55.70;;;;;;5065421;28;20217;-47
2023/05/02 11:56:25;;;;;;;2.27;1.10;;;20.20;55.70;;;;;;5072473;28;20229;-46
2023/05/02 11:59:03;;;;;;;3.00;1.30;;;20.20;55.50;;;;;;5072821;28;20212;-46
2023/05/02 12:01:32;;;;;;;3.93;1.60;;;20.20;55.60;;;;;;5058879;28;20777;-45
2023/05/02 12:04:07;;;;;;;2.00;1.27;;;20.10;55.60;;;;;;5019822;28;20624;-45
2023/05/02 12:06:38;;;;;;;2.90;1.27;;;20.20;55.70;;;;;;5083320;28;20217;-47
2023/05/02 12:09:15;;;;;;;2.03;1.23;;;20.20;55.80;;;;;;5072351;28;20194;-47
2023/05/02 12:11:50;;;;;;;1.37;1.03;;;20.10;55.70;;;;;;5067785;28;20182;-45
2023/05/02 12:14:29;;;;;;;2.53;1.13;;;20.20;55.90;;;;;;5077275;28;20192;-45
2023/05/02 12:17:06;;;;;;;1.30;0.97;;;20.20;55.90;;;;;;5037497;28;20217;-46
2023/05/02 12:19:38;;;;;;;1.77;1.10;;;20.20;55.90;;;;;;5072010;28;20198;-47
2023/05/02 12:22:06;;;;;;;1.53;0.90;;;20.20;55.90;;;;;;5070943;28;20585;-46
2023/05/02 12:24:40;;;;;;;2.47;1.20;;;20.20;56.00;;;;;;5073267;28;20271;-46
2023/05/02 12:27:14;;;;;;;2.80;1.37;;;20.20;56.00;;;;;;5047203;28;20241;-46
2023/05/02 12:29:45;;;;;;;3.03;1.47;;;20.20;56.00;;;;;;5051872;28;20576;-46
2023/05/02 12:32:25;;;;;;;3.03;1.37;;;20.30;56.00;;;;;;5076636;28;20774;-46
2023/05/02 12:34:55;;;;;;;1.43;1.20;;;20.20;55.90;;;;;;5059299;28;20218;-46
2023/05/02 12:37:27;;;;;;;2.53;1.07;;;20.30;55.90;;;;;;5080189;28;20206;-46
2023/05/02 12:39:57;;;;;;;2.27;1.07;;;20.20;55.70;;;;;;5066897;28;20202;-46
2023/05/02 12:42:25;;;;;;;2.77;1.23;;;20.30;55.60;;;;;;5076377;28;20888;-45
2023/05/02 12:44:55;;;;;;;1.87;1.03;;;20.30;55.70;;;;;;5075609;28;20208;-45
2023/05/02 12:47:25;;;;;;;1.90;1.20;;;20.30;55.70;;;;;;5072887;28;20237;-45
2023/05/02 12:50:04;;;;;;;1.67;1.20;;;20.30;55.60;;;;;;5073045;28;20729;-45
2023/05/02 12:52:58;;;;;;;2.10;1.10;;;20.30;55.60;;;;;;5054117;28;20209;-45
2023/05/02 12:55:40;;;;;;;2.10;1.30;;;20.30;55.60;;;;;;5077938;28;20200;-45
2023/05/02 12:58:15;;;;;;;1.87;1.20;;;20.30;55.80;;;;;;5075380;28;20235;-46
2023/05/02 13:00:49;;;;;;;1.87;1.13;;;20.30;55.80;;;;;;5081929;28;20201;-45
2023/05/02 13:03:21;;;;;;;1.67;0.97;;;20.30;55.90;;;;;;5078171;28;20202;-46
2023/05/02 13:05:55;;;;;;;1.63;0.93;;;20.30;55.90;;;;;;5057670;28;20224;-45
2023/05/02 13:08:24;;;;;;;1.90;1.13;;;20.40;56.10;;;;;;5087898;28;20231;-46
2023/05/02 13:10:57;;;;;;;2.50;1.27;;;20.30;56.00;;;;;;5077704;28;20192;-46
2023/05/02 13:13:28;;;;;;;2.40;1.13;;;20.30;56.00;;;;;;5074788;28;20194;-47
2023/05/02 13:16:00;;;;;;;2.33;1.20;;;20.30;56.00;;;;;;5051523;28;20255;-47
2023/05/02 13:18:28;;;;;;;1.97;0.90;;;20.30;55.90;;;;;;5076259;28;20320;-47
2023/05/02 13:20:58;;;;;;;2.60;1.23;;;20.30;55.90;;;;;;5057739;28;20202;-47
2023/05/02 13:23:31;;;;;;;3.13;1.50;;;20.40;55.80;;;;;;5072392;28;20237;-47
2023/05/02 13:26:03;;;;;;;1.43;1.27;;;20.40;55.80;;;;;;5067828;28;20224;-54